createdAt,value
2022-09-09T00:01:32.716Z,100.00
2022-09-09T00:04:40.417Z,100.00
2022-09-09T00:07:45.773Z,100.00
2022-09-09T00:10:52.383Z,100.00
2022-09-09T00:13:58.071Z,100.00
2022-09-09T00:17:05.222Z,100.00
2022-09-09T00:20:11.123Z,100.00
2022-09-09T00:23:17.010Z,100.00
2022-09-09T00:26:24.329Z,100.00
2022-09-09T00:29:31.551Z,100.00
2022-09-09T00:32:37.801Z,100.00
2022-09-09T00:35:43.449Z,100.00
2022-09-09T00:38:48.711Z,100.00
2022-09-09T00:41:54.927Z,100.00
2022-09-09T00:45:00.677Z,100.00
2022-09-09T00:48:06.584Z,100.00
2022-09-09T00:51:12.541Z,100.00
2022-09-09T00:54:18.553Z,100.00
2022-09-09T00:57:25.073Z,100.00
2022-09-09T01:00:31.313Z,100.00
2022-09-09T01:03:37.433Z,100.00
2022-09-09T01:06:43.921Z,100.00
2022-09-09T01:09:52.101Z,100.00
2022-09-09T01:12:58.115Z,100.00
2022-09-09T01:16:04.426Z,100.00
2022-09-09T01:19:13.623Z,100.00
2022-09-09T01:22:18.980Z,100.00
2022-09-09T01:25:26.616Z,100.00
2022-09-09T01:28:33.024Z,100.00
2022-09-09T01:31:39.007Z,100.00
2022-09-09T01:34:44.758Z,100.00
2022-09-09T01:37:50.153Z,100.00
2022-09-09T01:40:55.555Z,100.00
2022-09-09T01:44:01.832Z,100.00
2022-09-09T01:47:07.689Z,100.00
2022-09-09T01:50:13.542Z,100.00
2022-09-09T01:53:19.245Z,100.00
2022-09-09T01:56:25.023Z,100.00
2022-09-09T01:59:35.249Z,99.78
2022-09-09T02:02:42.227Z,99.53
2022-09-09T02:05:47.715Z,99.36
2022-09-09T02:08:53.646Z,99.18
2022-09-09T02:12:00.169Z,98.88
2022-09-09T02:15:07.333Z,98.51
2022-09-09T02:18:13.452Z,98.91
2022-09-09T02:21:19.465Z,98.84
2022-09-09T02:24:25.239Z,97.97
2022-09-09T02:27:31.232Z,98.46
2022-09-09T02:30:36.982Z,98.62
2022-09-09T02:33:42.488Z,98.46
2022-09-09T02:36:48.039Z,97.95
2022-09-09T02:39:53.796Z,97.83
2022-09-09T02:43:01.147Z,97.85
2022-09-09T02:46:06.899Z,98.25
2022-09-09T02:49:12.479Z,97.77
2022-09-09T02:52:17.963Z,97.05
2022-09-09T02:55:23.736Z,97.59
2022-09-09T02:58:29.429Z,97.70
2022-09-09T03:01:36.840Z,97.58
2022-09-09T03:04:42.797Z,97.74
2022-09-09T03:08:05.332Z,96.87
2022-09-09T03:11:11.407Z,96.80
2022-09-09T03:14:16.655Z,97.51
2022-09-09T03:17:22.609Z,97.48
2022-09-09T03:20:35.749Z,97.58
2022-09-09T03:23:41.489Z,97.77
2022-09-09T03:26:48.133Z,97.93
2022-09-09T03:29:54.045Z,98.07
2022-09-09T03:33:01.929Z,98.34
2022-09-09T03:36:08.832Z,98.57
2022-09-09T03:39:16.810Z,98.28
2022-09-09T03:42:22.123Z,99.15
2022-09-09T03:45:27.538Z,98.17
2022-09-09T03:48:33.830Z,98.58
2022-09-09T03:51:39.467Z,98.64
2022-09-09T03:54:45.468Z,98.23
2022-09-09T03:57:51.341Z,97.79
2022-09-09T04:00:57.498Z,98.42
2022-09-09T04:04:03.776Z,98.00
2022-09-09T04:07:09.531Z,97.50
2022-09-09T04:10:16.802Z,97.49
2022-09-09T04:13:22.626Z,97.74
2022-09-09T04:16:28.118Z,97.32
2022-09-09T04:19:35.016Z,97.42
2022-09-09T04:22:42.335Z,96.91
2022-09-09T04:26:03.468Z,96.23
2022-09-09T04:29:08.839Z,96.88
2022-09-09T04:32:14.290Z,96.39
2022-09-09T04:35:21.198Z,95.79
2022-09-09T04:38:27.230Z,96.18
2022-09-09T04:41:33.541Z,95.89
2022-09-09T04:44:39.438Z,96.36
2022-09-09T04:47:45.082Z,96.47
2022-09-09T04:50:51.065Z,96.31
2022-09-09T04:53:56.456Z,96.35
2022-09-09T04:57:05.180Z,96.26
2022-09-09T05:00:11.143Z,95.52
2022-09-09T05:03:17.111Z,95.93
2022-09-09T05:06:23.544Z,95.91
2022-09-09T05:09:29.165Z,95.81
2022-09-09T05:12:35.056Z,95.62
2022-09-09T05:15:40.604Z,94.89
2022-09-09T05:18:47.096Z,95.07
2022-09-09T05:21:52.765Z,94.30
2022-09-09T05:24:59.797Z,93.91
2022-09-09T05:28:09.485Z,93.22
2022-09-09T05:31:15.227Z,92.85
2022-09-09T05:34:21.853Z,92.28
2022-09-09T05:37:27.532Z,92.37
2022-09-09T05:40:32.886Z,91.85
2022-09-09T05:43:38.454Z,90.53
2022-09-09T05:46:43.963Z,90.45
2022-09-09T05:49:50.673Z,89.73
2022-09-09T05:52:57.145Z,89.76
2022-09-09T05:56:04.470Z,89.14
2022-09-09T05:59:12.541Z,88.63
2022-09-09T06:02:18.452Z,87.87
2022-09-09T06:05:25.860Z,87.64
2022-09-09T06:08:31.680Z,87.01
2022-09-09T06:11:37.328Z,86.42
2022-09-09T06:14:46.282Z,86.57
2022-09-09T06:17:51.817Z,85.37
2022-09-09T06:20:57.258Z,84.34
2022-09-09T06:24:03.929Z,84.82
2022-09-09T06:27:10.110Z,83.82
2022-09-09T06:30:18.322Z,83.65
2022-09-09T06:33:23.498Z,82.66
2022-09-09T06:36:28.889Z,82.17
2022-09-09T06:39:34.857Z,82.32
2022-09-09T06:42:41.139Z,81.48
2022-09-09T06:45:53.157Z,80.68
2022-09-09T06:49:00.798Z,80.06
2022-09-09T06:52:06.537Z,81.16
2022-09-09T06:55:13.212Z,80.77
2022-09-09T06:58:19.383Z,80.21
2022-09-09T07:01:26.013Z,79.00
2022-09-09T07:04:33.698Z,78.76
2022-09-09T07:07:39.293Z,78.06
2022-09-09T07:10:45.778Z,77.02
2022-09-09T07:13:51.667Z,75.85
2022-09-09T07:17:01.889Z,75.02
2022-09-09T07:20:08.113Z,73.95
2022-09-09T07:23:13.616Z,74.21
2022-09-09T07:26:20.794Z,74.06
2022-09-09T07:29:26.460Z,72.56
2022-09-09T07:32:31.922Z,72.75
2022-09-09T07:35:38.094Z,72.91
2022-09-09T07:38:44.642Z,71.73
2022-09-09T07:41:50.621Z,71.63
2022-09-09T07:44:56.217Z,71.24
2022-09-09T07:48:02.145Z,70.18
2022-09-09T07:51:08.317Z,69.89
2022-09-09T07:54:13.901Z,69.09
2022-09-09T07:57:19.913Z,70.46
2022-09-09T08:00:25.889Z,69.61
2022-09-09T08:03:31.772Z,70.28
2022-09-09T08:06:37.284Z,70.31
2022-09-09T08:09:43.506Z,70.08
2022-09-09T08:13:07.964Z,69.90
2022-09-09T08:16:15.524Z,69.52
2022-09-09T08:19:21.354Z,70.22
2022-09-09T08:22:28.890Z,69.78
2022-09-09T08:25:35.731Z,68.88
2022-09-09T08:28:42.293Z,68.13
2022-09-09T08:31:47.923Z,67.48
2022-09-09T08:34:54.952Z,66.91
2022-09-09T08:38:00.846Z,66.71
2022-09-09T08:41:07.552Z,66.20
2022-09-09T08:44:15.858Z,66.28
2022-09-09T08:47:22.024Z,66.54
2022-09-09T08:50:27.757Z,65.38
2022-09-09T08:53:33.452Z,64.73
2022-09-09T08:56:38.696Z,63.74
2022-09-09T08:59:44.467Z,64.26
2022-09-09T09:02:50.438Z,63.97
2022-09-09T09:05:56.454Z,63.52
2022-09-09T09:09:02.020Z,63.91
2022-09-09T09:12:07.468Z,64.33
2022-09-09T09:15:14.545Z,63.51
2022-09-09T09:18:21.469Z,63.37
2022-09-09T09:21:27.390Z,62.94
2022-09-09T09:24:33.507Z,61.00
2022-09-09T09:27:39.068Z,61.75
2022-09-09T09:30:44.817Z,61.86
2022-09-09T09:33:54.277Z,61.11
2022-09-09T09:36:59.784Z,60.27
2022-09-09T09:40:05.181Z,60.92
2022-09-09T09:43:11.365Z,61.34
2022-09-09T09:46:18.848Z,59.65
2022-09-09T09:49:25.067Z,59.44
2022-09-09T09:52:30.536Z,58.33
2022-09-09T09:59:01.845Z,57.10
2022-09-09T10:02:07.626Z,58.11
2022-09-09T10:05:13.637Z,57.26
2022-09-09T10:08:20.299Z,56.63
2022-09-09T10:11:26.850Z,57.23
2022-09-09T10:14:33.217Z,56.91
2022-09-09T10:17:39.442Z,56.29
2022-09-09T10:20:45.958Z,55.99
2022-09-09T10:23:52.265Z,56.75
2022-09-09T10:26:59.240Z,57.00
2022-09-09T10:30:09.814Z,56.03
2022-09-09T10:33:17.021Z,57.62
2022-09-09T10:36:23.106Z,58.13
2022-09-09T10:39:28.692Z,58.18
2022-09-09T10:42:35.726Z,57.65
2022-09-09T10:45:41.330Z,57.34
2022-09-09T10:48:52.053Z,58.08
2022-09-09T10:51:58.136Z,57.75
2022-09-09T10:55:05.371Z,57.63
2022-09-09T10:58:12.246Z,57.03
2022-09-09T11:01:18.138Z,57.59
2022-09-09T11:04:24.067Z,57.23
2022-09-09T11:07:29.762Z,57.53
2022-09-09T11:10:35.773Z,58.00
2022-09-09T11:13:53.613Z,57.64
2022-09-09T11:16:59.723Z,56.57
2022-09-09T11:20:05.852Z,56.90
2022-09-09T11:23:11.680Z,56.98
2022-09-09T11:26:17.515Z,57.17
2022-09-09T11:29:24.230Z,56.70
2022-09-09T11:32:34.727Z,57.04
2022-09-09T11:35:41.680Z,57.02
2022-09-09T11:38:51.860Z,56.91
2022-09-09T11:41:58.369Z,55.87
2022-09-09T11:45:04.325Z,55.99
2022-09-09T11:48:09.771Z,56.35
2022-09-09T11:51:17.278Z,56.06
2022-09-09T11:54:23.076Z,57.30
2022-09-09T11:57:30.114Z,56.62
2022-09-09T12:00:53.836Z,57.40
2022-09-09T12:03:59.443Z,57.18
2022-09-09T12:07:25.649Z,57.52
2022-09-09T12:10:32.894Z,57.79
2022-09-09T12:13:38.838Z,58.07
2022-09-09T12:16:56.919Z,58.61
2022-09-09T12:20:05.625Z,58.90
2022-09-09T12:23:11.406Z,59.90
2022-09-09T12:26:16.841Z,59.53
2022-09-09T12:29:22.616Z,59.74
2022-09-09T12:32:29.929Z,58.78
2022-09-09T12:35:35.579Z,59.61
2022-09-09T12:38:42.137Z,59.57
2022-09-09T12:41:49.069Z,58.28
2022-09-09T12:44:55.036Z,57.84
2022-09-09T12:48:01.558Z,57.87
2022-09-09T12:51:06.999Z,58.11
2022-09-09T12:54:13.275Z,57.85
2022-09-09T12:57:19.793Z,57.99
2022-09-09T13:00:25.728Z,57.58
2022-09-09T13:03:31.321Z,58.72
2022-09-09T13:06:36.763Z,58.80
2022-09-09T13:09:42.833Z,58.77
2022-09-09T13:12:49.441Z,58.95
2022-09-09T13:15:55.619Z,60.35
2022-09-09T13:19:00.938Z,59.94
2022-09-09T13:22:06.465Z,60.69
2022-09-09T13:25:12.889Z,60.48
2022-09-09T13:28:18.968Z,60.76
2022-09-09T13:31:24.718Z,61.84
2022-09-09T13:34:30.377Z,61.00
2022-09-09T13:37:36.158Z,60.78
2022-09-09T13:40:42.461Z,60.42
2022-09-09T13:43:48.493Z,60.26
2022-09-09T13:46:54.469Z,59.53
2022-09-09T13:50:01.796Z,59.07
2022-09-09T13:53:07.208Z,57.95
2022-09-09T13:56:13.259Z,58.36
2022-09-09T13:59:19.472Z,58.27
2022-09-09T14:02:26.488Z,58.02
2022-09-09T14:05:32.371Z,59.11
2022-09-09T14:08:38.573Z,59.30
2022-09-09T14:11:45.578Z,58.44
2022-09-09T14:14:52.761Z,59.31
2022-09-09T14:17:59.983Z,60.81
2022-09-09T14:21:12.459Z,61.53
2022-09-09T14:24:18.617Z,61.61
2022-09-09T14:27:27.127Z,61.66
2022-09-09T14:30:33.787Z,62.73
2022-09-09T14:33:39.698Z,63.08
2022-09-09T14:36:52.376Z,63.28
2022-09-09T14:39:58.098Z,64.71
2022-09-09T14:43:03.999Z,64.83
2022-09-09T14:46:10.148Z,65.34
2022-09-09T14:49:15.556Z,66.40
2022-09-09T14:52:49.970Z,67.51
2022-09-09T14:55:55.281Z,68.30
2022-09-09T14:59:02.282Z,68.42
2022-09-09T15:02:07.990Z,68.52
2022-09-09T15:05:13.699Z,69.02
2022-09-09T15:11:39.207Z,69.67
2022-09-09T15:14:45.207Z,69.93
2022-09-09T15:17:52.566Z,70.29
2022-09-09T15:20:58.301Z,70.58
2022-09-09T15:24:11.406Z,70.45
2022-09-09T15:27:17.483Z,70.84
2022-09-09T15:30:23.494Z,71.57
2022-09-09T15:33:30.071Z,71.69
2022-09-09T15:36:35.819Z,72.21
2022-09-09T15:43:00.828Z,72.63
2022-09-09T15:46:06.778Z,72.53
2022-09-09T15:49:19.573Z,72.71
2022-09-09T15:52:25.134Z,73.33
2022-09-09T15:55:48.175Z,74.17
2022-09-09T15:58:57.257Z,74.62
2022-09-09T16:02:04.045Z,76.25
2022-09-09T16:05:09.808Z,77.37
2022-09-09T16:08:15.395Z,78.58
2022-09-09T16:11:21.978Z,80.16
2022-09-09T16:14:27.960Z,79.98
2022-09-09T16:17:38.817Z,79.93
2022-09-09T16:20:45.014Z,80.04
2022-09-09T16:23:51.138Z,80.10
2022-09-09T16:26:56.985Z,79.84
2022-09-09T16:30:02.418Z,80.22
2022-09-09T16:33:15.509Z,80.07
2022-09-09T16:36:20.953Z,80.76
2022-09-09T16:39:28.547Z,80.63
2022-09-09T16:42:37.546Z,80.77
2022-09-09T16:45:45.868Z,81.23
2022-09-09T16:48:52.189Z,81.45
2022-09-09T16:51:58.084Z,81.67
2022-09-09T16:55:04.150Z,81.64
2022-09-09T16:58:10.360Z,82.04
2022-09-09T17:01:15.974Z,82.36
2022-09-09T17:04:23.058Z,82.53
2022-09-09T17:07:29.414Z,82.39
2022-09-09T17:10:37.695Z,82.94
2022-09-09T17:13:42.985Z,83.17
2022-09-09T17:16:48.990Z,83.22
2022-09-09T17:19:55.185Z,83.34
2022-09-09T17:23:01.659Z,83.66
2022-09-09T17:26:08.611Z,84.23
2022-09-09T17:29:14.486Z,84.82
2022-09-09T17:32:20.498Z,85.05
2022-09-09T17:35:27.253Z,85.53
2022-09-09T17:38:32.641Z,85.52
2022-09-09T17:41:38.608Z,85.71
2022-09-09T17:44:44.006Z,86.03
2022-09-09T17:47:50.747Z,85.92
2022-09-09T17:50:56.401Z,86.42
2022-09-09T17:54:01.643Z,86.61
2022-09-09T17:57:07.694Z,86.87
2022-09-09T18:00:13.535Z,86.84
2022-09-09T18:03:19.031Z,86.90
2022-09-09T18:06:25.665Z,87.07
2022-09-09T18:09:33.230Z,87.81
2022-09-09T18:12:39.458Z,87.52
2022-09-09T18:15:49.638Z,87.67
2022-09-09T18:18:56.058Z,87.60
2022-09-09T18:22:08.456Z,87.68
2022-09-09T18:25:14.995Z,88.02
2022-09-09T18:28:25.227Z,87.86
2022-09-09T18:31:30.784Z,88.21
2022-09-09T18:34:36.658Z,88.30
2022-09-09T18:37:42.856Z,89.09
2022-09-09T18:40:48.781Z,89.11
2022-09-09T18:43:54.541Z,89.35
2022-09-09T18:47:00.386Z,89.47
2022-09-09T18:50:06.111Z,89.71
2022-09-09T18:53:12.142Z,89.62
2022-09-09T18:56:18.243Z,89.43
2022-09-09T18:59:24.051Z,89.01
2022-09-09T19:02:36.441Z,89.25
2022-09-09T19:05:42.663Z,89.03
2022-09-09T19:08:52.230Z,89.37
2022-09-09T19:12:01.076Z,89.29
2022-09-09T19:15:06.895Z,89.04
2022-09-09T19:18:16.065Z,89.31
2022-09-09T19:21:22.809Z,88.92
2022-09-09T19:24:28.673Z,89.17
2022-09-09T19:27:34.939Z,89.02
2022-09-09T19:30:40.556Z,89.09
2022-09-09T19:33:47.253Z,89.18
2022-09-09T19:36:52.871Z,89.53
2022-09-09T19:39:59.049Z,89.72
2022-09-09T19:43:04.942Z,89.87
2022-09-09T19:46:11.694Z,89.87
2022-09-09T19:49:24.294Z,90.49
2022-09-09T19:52:31.194Z,90.81
2022-09-09T19:55:37.273Z,90.86
2022-09-09T19:58:45.213Z,91.42
2022-09-09T20:01:51.374Z,91.13
2022-09-09T20:05:01.173Z,91.33
2022-09-09T20:08:06.998Z,91.66
2022-09-09T20:11:13.544Z,91.37
2022-09-09T20:14:20.088Z,91.32
2022-09-09T20:17:26.054Z,91.60
2022-09-09T20:20:31.730Z,91.14
2022-09-09T20:23:37.500Z,91.58
2022-09-09T20:26:44.670Z,91.01
2022-09-09T20:29:53.201Z,90.74
2022-09-09T20:32:59.154Z,90.64
2022-09-09T20:36:05.435Z,90.09
2022-09-09T20:39:11.911Z,89.92
2022-09-09T20:42:21.162Z,89.75
2022-09-09T20:45:26.961Z,89.69
2022-09-09T20:48:33.257Z,89.01
2022-09-09T20:51:39.228Z,88.89
2022-09-09T20:54:45.361Z,88.58
2022-09-09T20:57:51.760Z,88.57
2022-09-09T21:01:00.608Z,88.56
2022-09-09T21:04:07.094Z,87.74
2022-09-09T21:07:12.905Z,86.97
2022-09-09T21:10:20.389Z,87.33
2022-09-09T21:13:26.932Z,87.13
2022-09-09T21:16:32.824Z,87.18
2022-09-09T21:19:38.428Z,86.52
2022-09-09T21:22:44.317Z,87.01
2022-09-09T21:25:49.793Z,86.64
2022-09-09T21:28:56.021Z,86.79
2022-09-09T21:32:03.781Z,86.79
2022-09-09T21:35:09.285Z,87.21
2022-09-09T21:38:17.405Z,87.76
2022-09-09T21:41:22.812Z,88.08
2022-09-09T21:44:30.093Z,89.29
2022-09-09T21:47:36.482Z,89.65
2022-09-09T21:50:42.429Z,90.52
2022-09-09T21:53:48.109Z,92.01
2022-09-09T21:56:54.451Z,93.15
2022-09-09T22:00:01.956Z,93.60
2022-09-09T22:03:08.627Z,94.27
2022-09-09T22:06:13.982Z,94.74
2022-09-09T22:09:20.459Z,94.94
2022-09-09T22:12:25.818Z,95.83
2022-09-09T22:15:32.674Z,97.53
2022-09-09T22:18:38.339Z,98.78
2022-09-09T22:21:44.109Z,99.64
2022-09-09T22:24:49.604Z,100.00
2022-09-09T22:27:55.561Z,100.00
2022-09-09T22:31:02.243Z,100.00
2022-09-09T22:34:08.611Z,100.00
2022-09-09T22:37:14.641Z,100.00
2022-09-09T22:40:20.133Z,100.00
2022-09-09T22:43:25.835Z,100.00
2022-09-09T22:46:32.056Z,100.00
2022-09-09T22:49:37.670Z,100.00
2022-09-09T22:52:44.374Z,100.00
2022-09-09T22:55:50.262Z,100.00
2022-09-09T22:58:55.953Z,100.00
2022-09-09T23:02:01.710Z,100.00
2022-09-09T23:05:08.925Z,100.00
2022-09-09T23:08:21.437Z,100.00
2022-09-09T23:11:28.119Z,100.00
2022-09-09T23:14:33.934Z,100.00
2022-09-09T23:17:40.192Z,100.00
2022-09-09T23:20:47.823Z,100.00
2022-09-09T23:23:55.539Z,100.00
2022-09-09T23:27:01.446Z,100.00
2022-09-09T23:30:08.148Z,100.00
2022-09-09T23:33:15.538Z,100.00
2022-09-09T23:36:22.595Z,100.00
2022-09-09T23:39:38.929Z,100.00
2022-09-09T23:42:47.613Z,100.00
2022-09-09T23:45:53.137Z,100.00
2022-09-09T23:49:08.433Z,100.00
2022-09-09T23:52:14.834Z,100.00
2022-09-09T23:55:43.264Z,100.00
2022-09-09T23:58:49.101Z,100.00
